Terminal Aerodrome Forecast
Issued by NWS Cleveland, OH

Home | Current Version | Previous Version | Graphics & Text | Print | Product List | Glossary On
Versions: 1 2 3 4 5 6 7 8 9 10 11 12 13 14 15 16 17
270
FTUS41 KCLE 080752 AAA
TAFYNG
TAF AMD
KYNG 080752Z 0808/0906 26009KT P6SM BKN028
     FM081100 24007KT P6SM SCT060
     FM081600 22012G20KT P6SM FEW250
     FM082300 21008KT P6SM FEW250=

USA.gov is the U.S. government's official web portal to all federal, state and local government web resources and services.